Station: Mardie  

  Atmospheric Gas Attenuation - ITU Rec 676-11   ----------------- dB/100km -----------------
Date Time Temp RH % AH g/m3 Dew Point Wind Direction Speed kph Gust kph Barometer mB Rainfall Since 9am 24GHz 47GHz 76GHz 122GHz 134GHz 241GHz
08/05 09:20 26.7 20 5.06 1.9 44 50 1018.2 0 11.7 18.1 22.9 59.4 47.0 159.3
08/05 09:10 26.5 20 5.01 1.7 48 57 1018 0 11.6 18.0 22.8 59.2 46.6 157.9
08/05 09:00 26.4 20 4.98 1.7 43 56 1018.2 0 11.5 18.0 22.8 59.0 46.3 157.1
08/05 08:50 26.1 21 5.14 2 32 35 1018.2 0 11.9 18.3 23.3 60.5 48.1 163.2
08/05 08:40 25.7 22 5.27 2.4 26 30 1018.3 0 12.1 18.5 23.8 61.8 49.6 168.6
08/05 08:30 25.4 22 5.18 2.2 30 41 1018.2 0 12.0 18.5 23.6 61.3 48.9 166.0
08/05 08:20 24.8 23 5.24 2.2 32 35 1018.2 0 12.1 18.6 24.0 62.3 49.8 169.3
08/05 08:10 24.4 23 5.12 1.9 33 37 1018.1 0 11.9 18.6 23.7 61.6 48.9 165.8
08/05 08:00 24 24 5.22 2.2 30 37 1017.9 0 12.1 18.8 24.1 62.7 50.1 170.1
08/05 07:50 23.8 24 5.16 2 30 35 1017.9 0 12.0 18.7 24.0 62.3 49.6 168.4
08/05 07:40 23.4 24 5.05 1.7 24 28 1017.9 0 11.7 18.7 23.8 61.7 48.7 165.2
08/05 07:30 23 25 5.14 1.9 24 32 1017.7 0 11.9 18.9 24.2 62.7 49.9 169.2
08/05 07:20 22.7 25 5.05 1.6 24 26 1017.7 0 11.8 18.8 24.0 62.2 49.1 166.6
08/05 07:10 22.4 25 4.96 1.4 22 28 1017.7 0 11.6 18.8 23.8 61.7 48.4 163.9
08/05 07:00 22.2 26 5.1 1.8 22 26 1017.6 0 11.9 19.0 24.3 63.0 49.9 169.4
08/05 06:50 22 26 5.05 1.6 22 26 1017.5 0 11.8 18.9 24.2 62.7 49.5 168.0
08/05 06:40 21.8 26 4.99 1.4 19 20 1017.5 0 11.7 18.9 24.0 62.4 49.0 166.2
08/05 06:30 21.9 26 5.02 1.6 19 26 1017.4 0 11.7 18.9 24.1 62.5 49.3 167.0
08/05 06:20 22.1 26 5.07 1.7 19 20 1017.2 0 11.8 18.9 24.2 62.8 49.7 168.4
08/05 06:10 22.3 25 4.94 1.3 20 22 1017.1 0 11.6 18.7 23.7 61.5 48.2 163.3
08/05 06:00 22.3 25 4.94 1.3 19 22 1017 0 11.6 18.7 23.7 61.5 48.2 163.3
08/05 05:50 22.6 25 5.02 1.6 19 22 1017 0 11.7 18.8 23.9 62.0 48.9 165.6
08/05 05:40 22.9 25 5.11 1.8 22 26 1016.9 0 11.9 18.8 24.1 62.5 49.6 168.2
08/05 05:30 22.9 24 4.9 1.3 22 28 1016.8 0 11.5 18.6 23.4 60.8 47.4 160.7
08/05 05:20 23.1 24 4.96 1.4 22 26 1016.6 0 11.6 18.6 23.5 61.1 47.9 162.4
08/05 05:10 23.1 24 4.96 1.4 22 28 1016.6 0 11.6 18.6 23.5 61.1 47.9 162.4
08/05 05:00 23.3 24 5.02 1.6 24 30 1016.5 0 11.7 18.6 23.7 61.4 48.4 164.2
08/05 04:50 23.2 25 5.2 2.1 22 28 1016.5 0 12.1 18.9 24.3 63.0 50.3 170.8
08/05 04:40 23.2 25 5.2 2.1 22 28 1016.5 0 12.1 18.9 24.3 63.0 50.3 170.8
08/05 04:30 23.2 25 5.2 2.1 20 24 1016.5 0 12.1 18.9 24.3 63.0 50.3 170.8
08/05 04:20 23.3 25 5.23 2.1 24 30 1016.4 0 12.1 18.9 24.3 63.2 50.6 171.7
08/05 04:10 23.1 26 5.37 2.5 22 28 1016.4 0 12.4 19.1 24.8 64.5 52.1 177.2
08/05 04:00 22.9 27 5.52 2.9 20 28 1016.4 0 12.7 19.3 25.3 65.9 53.8 183.1
08/05 03:50 22.5 28 5.59 3.1 19 22 1016.4 0 12.9 19.5 25.7 66.8 54.8 186.6
08/05 03:40 22.5 29 5.79 3.6 17 19 1016.4 0 13.3 19.8 26.3 68.5 56.9 194.0
08/05 03:30 22.6 29 5.83 3.7 19 24 1016.3 0 13.4 19.8 26.4 68.8 57.3 195.2
08/05 03:20 22.8 28 5.69 3.3 19 20 1016.3 0 13.1 19.6 25.9 67.4 55.7 189.6
08/05 03:10 22.8 29 5.89 3.8 20 24 1016.4 0 13.5 19.8 26.6 69.1 57.8 197.0
08/05 03:00 22.7 29 5.86 3.8 19 24 1016.4 0 13.5 19.8 26.5 69.0 57.5 196.1
08/05 02:50 22.8 29 5.89 3.8 19 20 1016.4 0 13.5 19.8 26.6 69.1 57.8 197.0
08/05 02:40 22.8 29 5.89 3.8 19 20 1016.5 0 13.5 19.8 26.6 69.1 57.8 197.0
08/05 02:30 23 29 5.96 4 17 22 1016.5 0 13.6 19.9 26.7 69.6 58.4 199.2
08/05 02:20 23.2 29 6.03 4.2 17 19 1016.4 0 13.8 19.9 26.9 70.0 59.0 201.3
08/05 02:10 23.3 30 6.27 4.7 19 24 1016.3 0 14.3 20.2 27.6 72.0 61.5 210.0
08/05 02:00 23.4 30 6.31 4.9 19 24 1016.4 0 14.4 20.2 27.7 72.2 61.8 211.3
08/05 01:50 23.4 30 6.31 4.8 19 22 1016.5 0 14.4 20.3 27.7 72.2 61.8 211.3
08/05 01:40 23.6 31 6.59 5.5 22 26 1016.4 0 14.9 20.6 28.6 74.5 64.7 221.3
08/05 01:30 23.6 32 6.81 6 20 26 1016.5 0 15.4 20.9 29.3 76.4 67.0 229.7
08/05 01:20 23.7 34 7.27 6.9 20 24 1016.4 0 16.3 21.5 30.8 80.4 72.0 247.1
08/05 01:10 23.6 36 7.66 8 22 28 1016.4 0 17.2 22.0 32.1 84.0 76.4 262.6
08/05 01:00 23 47 9.66 11.1 15 20 1016.5 0 21.4 25.1 39.5 103.7 100.4 346.7
08/05 00:50 22.6 51 10.24 12.2 11 13 1016.5 0 22.6 26.0 41.8 110.0 108.1 373.4
08/05 00:40 23.1 52 10.75 12.7 11 15 1016.6 0 23.7 26.7 43.5 114.4 113.7 393.3
08/05 00:30 23.3 54 11.29 13.5 15 19 1016.6 0 24.8 27.5 45.5 119.7 120.3 416.1
08/05 00:20 23.4 54 11.35 13.8 17 17 1016.7 0 24.9 27.5 45.7 120.2 120.9 418.3
08/05 00:10 22.5 56 11.18 13.5 13 13 1016.6 0 24.6 27.5 45.5 119.8 120.1 415.4
08/05 00:00 22.1 56 10.93 12.9 11 13 1016.6 0 24.1 27.3 44.8 117.7 117.5 406.3
07/05 23:50 22 56 10.87 12.8 11 11 1016.6 0 24.0 27.2 44.6 117.3 116.9 404.1
07/05 23:40 22.1 55 10.74 12.6 11 11 1016.6 0 23.7 27.0 44.0 115.8 115.1 397.8
07/05 23:30 21.9 56 10.81 12.7 11 11 1016.7 0 23.8 27.1 44.4 116.8 116.3 402.0
07/05 23:20 21.8 56 10.74 12.6 9 9 1016.6 0 23.7 27.1 44.2 116.2 115.5 399.3
07/05 23:10 21.9 56 10.81 12.7 7 7 1016.7 0 23.8 27.1 44.4 116.8 116.3 402.0
07/05 23:00 22.4 55 10.92 12.9 9 9 1016.8 0 24.0 27.2 44.6 117.2 116.9 404.4
07/05 22:50 22.6 55 11.05 13.1 9 9 1016.8 0 24.3 27.3 45.0 118.3 118.3 409.1
07/05 22:40 22.6 55 11.05 13.1 11 11 1016.7 0 24.3 27.3 44.9 118.3 118.3 409.1
07/05 22:30 22.9 55 11.24 13.4 7 9 1016.8 0 24.7 27.5 45.5 119.8 120.3 416.1
07/05 22:20 22.9 55 11.24 13.6 7 7 1016.7 0 24.7 27.5 45.5 119.8 120.2 416.0
07/05 22:10 22.8 55 11.18 13.5 7 7 1016.6 0 24.6 27.4 45.3 119.3 119.6 413.8
07/05 22:00 23.1 55 11.37 13.8 9 9 1016.6 0 25.0 27.6 45.9 120.8 121.6 420.8
07/05 21:50 23.2 54 11.23 13.6 9 9 1016.6 0 24.7 27.4 45.3 119.2 119.6 414.0
07/05 21:40 23.5 55 11.63 13.9 9 9 1016.5 0 25.5 27.9 46.7 122.9 124.3 430.2
07/05 21:30 23.6 55 11.7 14 9 11 1016.5 0 25.6 28.0 46.9 123.5 125.0 432.8
07/05 21:20 23.7 53 11.34 13.8 9 9 1016.4 0 24.9 27.4 45.4 119.6 120.3 416.2
07/05 21:10 24.1 53 11.6 13.9 9 9 1016.4 0 25.4 27.7 46.2 121.7 122.9 425.6
07/05 21:00 24.6 52 11.7 14.1 11 11 1016.3 0 25.6 27.7 46.3 121.9 123.4 427.3
07/05 20:50 24.8 50 11.38 13.9 11 11 1016.2 0 24.9 27.1 45.0 118.3 119.1 412.2
07/05 20:40 24.9 49 11.22 13.7 9 11 1016.2 0 24.5 26.9 44.3 116.6 116.9 404.7
07/05 20:30 25.3 48 11.24 13.5 11 13 1016.1 0 24.6 26.8 44.1 116.2 116.6 403.5
07/05 20:20 25.5 46 10.89 13.3 11 13 1016 0 23.8 26.2 42.7 112.4 112.0 387.4
07/05 20:10 25.6 46 10.95 13.1 13 15 1015.9 0 23.9 26.2 42.9 112.8 112.6 389.5
07/05 20:00 25.1 45 10.42 12.3 9 13 1015.8 0 22.9 25.6 41.2 108.3 106.8 369.3
07/05 19:50 25.4 43 10.12 12.2 11 13 1015.6 0 22.2 25.0 39.9 104.9 102.8 355.3
07/05 19:40 25.4 43 10.12 12.2 9 11 1015.4 0 22.2 25.0 39.9 104.9 102.8 355.2
07/05 19:30 25.6 45 10.71 12.8 11 13 1015.4 0 23.4 25.9 42.0 110.4 109.6 379.1
07/05 19:20 25.5 46 10.89 13 9 11 1015.1 0 23.8 26.1 42.7 112.3 111.9 387.2
07/05 19:10 25.7 46 11.01 13.5 11 13 1015 0 24.1 26.3 43.0 113.2 113.1 391.3
07/05 19:00 26.1 44 10.77 13.2 11 13 1014.9 0 23.5 25.8 41.9 110.3 109.6 379.2
07/05 18:50 26.4 43 10.7 13.1 11 13 1014.8 0 23.4 25.6 41.5 109.2 108.3 374.8
07/05 18:40 26.8 42 10.69 13.1 11 13 1014.7 0 23.3 25.5 41.3 108.5 107.7 372.5
07/05 18:30 26.9 43 11.01 13.3 13 15 1014.5 0 24.0 25.9 42.4 111.5 111.3 385.3
07/05 18:20 27.3 41 10.73 13.2 11 13 1014.4 0 23.4 25.4 41.1 108.2 107.4 371.7
07/05 18:10 27.6 41 10.91 13.5 11 13 1014.3 0 23.7 25.5 41.6 109.5 109.1 377.8
07/05 18:00 27.8 40 10.76 13.3 15 20 1014.2 0 23.4 25.3 41.0 107.8 107.1 370.6
07/05 17:50 28.1 39 10.67 13.2 15 17 1014.2 0 23.2 25.1 40.5 106.6 105.6 365.6
07/05 17:40 28.6 39 10.96 13.3 17 19 1014.1 0 23.8 25.3 41.3 108.6 108.4 375.1
07/05 17:30 28.9 39 11.14 13.6 19 24 1013.9 0 24.1 25.5 41.8 109.9 110.0 381.0
07/05 17:20 29.5 36 10.63 13.2 20 24 1013.8 0 23.1 24.6 39.7 104.3 103.3 357.6
07/05 17:10 30.4 31 9.61 11.8 19 20 1013.7 0 20.9 23.0 35.8 94.0 90.8 313.9
07/05 17:00 31.4 24 7.85 8.4 24 32 1013.6 0 17.2 20.4 29.7 77.9 71.3 245.3
07/05 16:50 31.6 23 7.6 8.5 26 32 1013.5 0 16.7 20.1 28.9 75.6 68.5 235.9

Last Refresh: 08-May-2026 11:04:11

Bureau of Meteorology